Time;durP1;ratioP1;P1;durP2;ratioP2;P2;SDS_P1;SDS_P2;PMS_P1;PMS_P2;Temp;Humidity;BMP_temperature;BMP_pressure;BME280_temperature;BME280_humidity;BME280_pressure;Samples;Min_cycle;Max_cycle;Signal;HPM_P1;HPM_P2
2022/01/28 00:00:32;;;;;;;57.95;42.20;;;9.80;82.20;;;;;;4954447;29;20159;-66
2022/01/28 00:03:05;;;;;;;;;;;9.80;82.00;;;;;;4954841;28;20097;-64
2022/01/28 00:05:32;;;;;;;67.65;43.13;;;9.80;83.20;;;;;;4954922;29;19907;-66
2022/01/28 00:07:58;;;;;;;61.72;42.90;;;9.80;82.30;;;;;;4954750;29;20396;-65
2022/01/28 00:10:25;;;;;;;61.35;44.30;;;9.80;82.30;;;;;;4954351;29;20020;-67
2022/01/28 00:15:25;;;;;;;54.65;40.83;;;9.70;81.70;;;;;;4954580;28;20035;-65
2022/01/28 00:36:47;;;;;;;49.63;37.50;;;9.40;80.60;;;;;;4958728;28;20546;-65
2022/01/28 00:39:14;;;;;;;51.78;39.05;;;9.40;81.50;;;;;;4958358;28;20027;-66
2022/01/28 00:41:40;;;;;;;51.88;37.85;;;9.40;81.70;;;;;;4958133;29;20027;-64
2022/01/28 00:44:06;;;;;;;47.40;35.85;;;9.30;81.50;;;;;;4958057;29;20094;-65
2022/01/28 00:46:31;;;;;;;52.42;37.97;;;9.30;82.10;;;;;;4958047;29;20023;-64
2022/01/28 00:48:57;;;;;;;47.70;36.90;;;9.20;81.40;;;;;;4958320;29;20476;-65
2022/01/28 00:51:23;;;;;;;51.53;35.47;;;9.10;82.00;;;;;;4958566;29;20028;-66
2022/01/28 00:53:49;;;;;;;49.00;36.70;;;9.10;82.20;;;;;;4958540;29;20027;-65
2022/01/28 00:56:15;;;;;;;53.90;36.88;;;9.00;82.20;;;;;;4957990;29;20031;-66
2022/01/28 00:58:41;;;;;;;51.88;36.83;;;9.00;82.40;;;;;;4957679;28;20413;-65
2022/01/28 01:01:06;;;;;;;47.55;34.92;;;9.00;82.40;;;;;;4956501;28;20034;-64
2022/01/28 01:03:33;;;;;;;46.53;33.88;;;9.10;82.50;;;;;;4957626;28;20042;-66
2022/01/28 01:05:59;;;;;;;49.20;33.95;;;9.10;82.10;;;;;;4957799;28;20030;-67
2022/01/28 01:08:25;;;;;;;42.92;33.15;;;9.00;81.80;;;;;;4957684;29;20023;-65
2022/01/28 01:10:53;;;;;;;44.65;33.00;;;9.00;81.90;;;;;;4957664;28;20063;-65
2022/01/28 01:13:18;;;;;;;49.28;32.38;;;8.90;82.40;;;;;;4957488;29;20373;-66
2022/01/28 01:15:48;;;;;;;46.50;32.25;;;8.90;82.60;;;;;;4956093;28;20038;-64
2022/01/28 01:18:17;;;;;;;45.67;34.00;;;8.80;82.20;;;;;;4956174;28;20034;-64
2022/01/28 01:23:21;;;;;;;42.08;31.17;;;8.80;82.10;;;;;;4957330;28;20129;-65
2022/01/28 01:26:11;;;;;;;45.38;31.73;;;8.80;82.80;;;;;;4957425;29;20024;-66
2022/01/28 01:28:37;;;;;;;43.40;30.48;;;8.80;82.70;;;;;;4956658;29;20046;-65
2022/01/28 01:31:06;;;;;;;44.38;30.55;;;8.80;82.80;;;;;;4956325;28;20027;-69
2022/01/28 01:33:38;;;;;;;41.40;30.48;;;8.80;82.80;;;;;;4957267;28;20049;-65
2022/01/28 01:36:04;;;;;;;44.72;31.42;;;8.70;82.80;;;;;;4957026;28;20031;-66
2022/01/28 01:38:34;;;;;;;39.90;29.95;;;8.70;82.50;;;;;;4957290;28;20070;-68
2022/01/28 01:41:03;;;;;;;48.47;30.20;;;8.70;82.80;;;;;;4955954;29;20397;-67
2022/01/28 01:44:21;;;;;;;39.58;30.05;;;8.70;82.80;;;;;;4939670;29;20142;-66
2022/01/28 01:54:09;;;;;;;44.20;31.33;;;8.40;82.80;;;;;;4957314;28;20062;-68
2022/01/28 01:56:37;;;;;;;44.30;32.30;;;8.40;83.70;;;;;;4956896;28;20054;-66
2022/01/28 01:59:03;;;;;;;51.13;34.65;;;8.40;84.40;;;;;;4956621;29;20047;-65
2022/01/28 02:01:28;;;;;;;45.30;31.90;;;8.40;84.00;;;;;;4956640;28;20330;-64
2022/01/28 02:03:54;;;;;;;46.53;31.88;;;8.40;83.50;;;;;;4956690;29;20035;-65
2022/01/28 02:06:22;;;;;;;49.05;31.02;;;8.50;83.80;;;;;;4956631;29;20104;-64
2022/01/28 02:08:48;;;;;;;48.50;31.67;;;8.60;83.80;;;;;;4956635;29;20467;-64
2022/01/28 02:11:14;;;;;;;46.33;30.45;;;8.50;83.40;;;;;;4956603;29;20031;-65
2022/01/28 02:13:41;;;;;;;44.72;31.40;;;8.50;83.20;;;;;;4956443;29;20027;-64
2022/01/28 02:16:08;;;;;;;43.53;32.20;;;8.50;83.30;;;;;;4955273;28;20468;-66
2022/01/28 02:18:34;;;;;;;42.92;31.58;;;8.40;83.30;;;;;;4956536;28;20031;-65
2022/01/28 02:21:11;;;;;;;39.28;30.08;;;8.30;84.00;;;;;;4956538;28;20039;-65
2022/01/28 02:23:38;;;;;;;43.75;30.38;;;8.30;83.50;;;;;;4956374;28;20129;-66
2022/01/28 02:26:05;;;;;;;43.50;29.80;;;8.20;84.30;;;;;;4956199;29;20023;-67
2022/01/28 02:28:36;;;;;;;38.72;30.13;;;8.20;84.30;;;;;;4956122;28;20404;-66
2022/01/28 02:31:03;;;;;;;41.03;28.88;;;8.10;84.70;;;;;;4956346;29;20067;-65
2022/01/28 02:33:29;;;;;;;41.63;28.25;;;8.20;85.00;;;;;;4955999;28;20031;-66
2022/01/28 02:35:56;;;;;;;38.60;27.88;;;8.10;84.70;;;;;;4956177;28;20392;-64
2022/01/28 02:38:24;;;;;;;43.00;28.50;;;8.20;84.70;;;;;;4956073;29;20065;-64
2022/01/28 02:40:57;;;;;;;39.58;28.55;;;8.20;84.10;;;;;;4955710;29;20033;-64
2022/01/28 02:45:51;;;;;;;41.63;28.80;;;8.40;84.70;;;;;;4955993;28;20035;-64
2022/01/28 02:48:24;;;;;;;36.58;28.95;;;8.50;84.70;;;;;;4955703;29;20023;-65
2022/01/28 02:53:25;;;;;;;41.05;29.10;;;8.60;83.70;;;;;;4955573;28;20415;-64
2022/01/28 02:55:58;;;;;;;39.28;29.05;;;8.60;83.20;;;;;;4955590;29;20388;-64
2022/01/28 02:58:25;;;;;;;41.42;28.08;;;8.60;83.90;;;;;;4954138;28;20058;-65
2022/01/28 03:00:52;;;;;;;39.80;29.05;;;8.70;84.20;;;;;;4938153;29;20027;-66
2022/01/28 03:03:19;;;;;;;39.60;28.33;;;8.70;84.00;;;;;;4955338;29;20069;-65
2022/01/28 03:05:45;;;;;;;39.75;28.67;;;8.60;83.60;;;;;;4937954;29;20023;-64
2022/01/28 03:08:12;;;;;;;40.45;27.55;;;8.60;84.00;;;;;;4955205;28;20517;-64
2022/01/28 03:10:59;;;;;;;40.20;27.27;;;8.60;84.00;;;;;;4955271;29;20449;-65
2022/01/28 03:16:09;;;;;;;35.47;25.83;;;8.70;83.50;;;;;;4955406;28;20535;-65
2022/01/28 03:18:55;;;;;;;39.47;27.10;;;8.70;84.40;;;;;;4955358;28;20034;-65
2022/01/28 03:23:58;;;;;;;33.88;25.70;;;8.60;84.60;;;;;;4954937;29;20050;-65
2022/01/28 03:26:26;;;;;;;36.20;26.45;;;8.70;84.50;;;;;;4955183;29;20019;-65
2022/01/28 03:28:52;;;;;;;36.72;26.08;;;8.70;84.50;;;;;;4955164;29;20480;-65
2022/01/28 03:31:18;;;;;;;36.45;27.50;;;8.80;84.50;;;;;;4955147;29;20604;-64
2022/01/28 03:33:44;;;;;;;34.78;26.25;;;8.80;83.70;;;;;;4937847;29;20118;-65
2022/01/28 03:36:11;;;;;;;35.17;26.70;;;8.90;84.30;;;;;;4954988;29;20023;-64
2022/01/28 03:38:39;;;;;;;35.58;27.00;;;8.80;83.50;;;;;;4955079;29;20038;-64
2022/01/28 03:41:12;;;;;;;32.08;26.75;;;8.80;84.50;;;;;;4937724;29;20031;-65
2022/01/28 03:43:39;;;;;;;34.83;26.52;;;8.80;84.40;;;;;;4954591;28;20047;-64
2022/01/28 03:46:05;;;;;;;36.17;27.02;;;8.80;84.10;;;;;;4954942;28;20170;-65
2022/01/28 03:48:31;;;;;;;33.75;26.50;;;8.80;84.10;;;;;;4954724;28;20028;-65
2022/01/28 03:50:56;;;;;;;33.10;25.63;;;8.90;83.80;;;;;;4954950;29;20031;-65
2022/01/28 03:53:22;;;;;;;35.67;25.52;;;8.90;83.70;;;;;;4954671;28;20163;-64
2022/01/28 03:55:49;;;;;;;40.08;27.10;;;9.00;83.50;;;;;;4954030;29;20027;-65
2022/01/28 03:58:15;;;;;;;38.60;27.00;;;9.00;83.50;;;;;;4954553;29;20054;-64
2022/01/28 04:00:40;;;;;;;35.42;26.25;;;9.00;83.30;;;;;;4954530;28;20027;-66
2022/01/28 04:03:23;;;;;;;37.45;26.88;;;8.90;83.20;;;;;;4954394;29;20035;-65
2022/01/28 04:11:33;;;;;;;32.85;25.08;;;9.00;83.90;;;;;;4954967;28;20097;-66
2022/01/28 04:14:16;;;;;;;35.38;24.40;;;9.00;83.50;;;;;;4954550;28;20019;-65
2022/01/28 04:19:25;;;;;;;;;;;9.00;81.90;;;;;;4955012;28;20090;-65
2022/01/28 04:21:51;;;;;;;31.98;23.40;;;9.00;82.80;;;;;;4954518;29;19907;-64
2022/01/28 04:24:17;;;;;;;30.17;23.40;;;8.90;82.60;;;;;;4954285;28;20501;-65
2022/01/28 04:26:43;;;;;;;31.38;22.73;;;8.80;82.80;;;;;;4954637;28;20059;-67
2022/01/28 04:29:11;;;;;;;29.85;23.23;;;8.80;83.00;;;;;;4954484;29;20038;-65
2022/01/28 04:31:42;;;;;;;28.90;21.98;;;8.90;82.90;;;;;;4954754;29;20039;-65
2022/01/28 04:34:08;;;;;;;32.90;24.88;;;8.80;83.30;;;;;;4954456;29;20038;-65
2022/01/28 04:36:39;;;;;;;32.15;23.73;;;8.80;83.30;;;;;;4954385;29;20079;-65
2022/01/28 04:39:17;;;;;;;32.22;22.63;;;8.80;83.60;;;;;;4954493;29;20451;-64
2022/01/28 04:42:01;;;;;;;31.30;22.60;;;8.80;83.10;;;;;;4954520;29;20050;-64
2022/01/28 04:44:37;;;;;;;28.92;23.35;;;8.90;83.50;;;;;;4953327;29;20209;-65
2022/01/28 04:47:12;;;;;;;32.20;23.10;;;8.90;83.00;;;;;;4954429;29;20028;-66
2022/01/28 05:05:04;;;;;;;33.65;21.77;;;8.80;81.60;;;;;;4954086;28;20508;-65
2022/01/28 05:28:49;;;;;;;32.65;23.40;;;9.10;82.80;;;;;;4957260;28;20031;-65
2022/01/28 05:31:19;;;;;;;28.88;22.42;;;9.00;82.60;;;;;;4957315;29;20042;-67
2022/01/28 05:33:47;;;;;;;30.65;22.13;;;9.00;83.60;;;;;;4955944;28;20388;-66
2022/01/28 05:36:13;;;;;;;32.88;22.35;;;9.10;82.60;;;;;;4957308;29;20027;-67
2022/01/28 05:38:39;;;;;;;28.52;21.65;;;9.00;82.60;;;;;;4957506;28;20028;-65
2022/01/28 05:41:05;;;;;;;29.08;21.90;;;9.00;83.00;;;;;;4957248;29;20114;-64
2022/01/28 05:43:30;;;;;;;28.52;22.45;;;9.00;82.80;;;;;;4957075;28;20227;-66
2022/01/28 05:45:56;;;;;;;30.63;21.73;;;9.00;82.40;;;;;;4957040;28;20030;-65
2022/01/28 05:48:22;;;;;;;30.35;21.58;;;9.00;82.90;;;;;;4956661;29;20040;-64
2022/01/28 05:50:48;;;;;;;27.23;21.13;;;8.90;82.80;;;;;;4957159;28;20031;-65
2022/01/28 05:53:14;;;;;;;29.95;21.13;;;8.90;83.20;;;;;;4956812;29;20054;-66
2022/01/28 05:55:40;;;;;;;31.55;22.40;;;9.00;82.90;;;;;;4957173;29;20035;-65
2022/01/28 05:58:05;;;;;;;31.67;22.77;;;9.00;82.60;;;;;;4956818;29;20098;-64
2022/01/28 06:00:31;;;;;;;34.22;21.35;;;9.10;82.60;;;;;;4956834;29;20062;-65
2022/01/28 06:02:58;;;;;;;30.88;22.30;;;9.10;82.60;;;;;;4956394;28;20039;-69
2022/01/28 06:05:34;;;;;;;34.55;22.77;;;9.10;82.80;;;;;;4957075;29;20102;-64
2022/01/28 06:08:04;;;;;;;31.42;22.45;;;9.20;82.70;;;;;;4939635;29;20070;-66
2022/01/28 06:10:30;;;;;;;27.90;21.90;;;9.20;82.50;;;;;;4956961;28;20388;-65
2022/01/28 06:12:56;;;;;;;30.27;23.20;;;9.20;82.60;;;;;;4956747;29;20023;-65
2022/01/28 06:15:21;;;;;;;34.35;24.77;;;9.20;82.50;;;;;;4956741;28;20077;-65
2022/01/28 06:17:47;;;;;;;32.17;23.13;;;9.30;82.60;;;;;;4956098;28;20031;-66
2022/01/28 06:20:19;;;;;;;32.33;22.25;;;9.30;82.30;;;;;;4956704;28;20034;-64
2022/01/28 06:22:45;;;;;;;29.08;21.85;;;9.20;82.40;;;;;;4956598;28;20035;-65
2022/01/28 06:25:15;;;;;;;32.85;21.63;;;9.20;82.50;;;;;;4956490;29;20114;-65
2022/01/28 06:27:42;;;;;;;36.05;22.92;;;9.20;82.40;;;;;;4939145;29;20027;-68
2022/01/28 06:30:08;;;;;;;27.42;21.08;;;9.20;82.70;;;;;;4956114;29;20125;-68
2022/01/28 06:32:34;;;;;;;29.92;20.42;;;9.20;82.20;;;;;;4956039;29;20043;-65
2022/01/28 06:35:02;;;;;;;34.10;21.55;;;9.20;82.20;;;;;;4956300;29;20026;-65
2022/01/28 06:37:28;;;;;;;26.98;20.73;;;9.20;82.60;;;;;;4956238;28;20038;-66
2022/01/28 06:39:54;;;;;;;27.35;20.80;;;9.30;82.50;;;;;;4956215;29;20054;-66
2022/01/28 06:42:20;;;;;;;29.73;19.80;;;9.30;82.20;;;;;;4955628;29;20149;-65
2022/01/28 06:44:45;;;;;;;24.60;20.08;;;9.30;82.00;;;;;;4955785;28;20469;-65
2022/01/28 06:47:12;;;;;;;31.05;20.95;;;9.40;82.10;;;;;;4955810;29;20023;-65
2022/01/28 06:49:38;;;;;;;30.58;22.45;;;9.40;82.10;;;;;;4955770;29;20512;-65
2022/01/28 06:52:05;;;;;;;29.92;21.67;;;9.50;82.00;;;;;;4955703;29;20027;-66
2022/01/28 06:54:32;;;;;;;24.65;19.02;;;9.50;81.70;;;;;;4955643;28;20059;-66
2022/01/28 06:56:57;;;;;;;24.67;18.30;;;9.50;81.40;;;;;;4955702;29;20098;-65
2022/01/28 06:59:25;;;;;;;25.35;17.38;;;9.50;81.20;;;;;;4938162;29;20051;-66
2022/01/28 07:01:53;;;;;;;24.42;16.98;;;9.50;80.60;;;;;;4955762;28;20030;-66
2022/01/28 07:04:19;;;;;;;27.33;17.30;;;9.60;80.60;;;;;;4954992;28;20523;-70
2022/01/28 07:06:46;;;;;;;25.48;17.17;;;9.60;80.90;;;;;;4955610;28;20019;-66
2022/01/28 07:09:11;;;;;;;32.45;18.75;;;9.60;80.60;;;;;;4955541;29;20442;-65
2022/01/28 07:11:37;;;;;;;26.73;18.55;;;9.60;80.90;;;;;;4955451;29;20079;-65
2022/01/28 07:14:03;;;;;;;26.17;19.05;;;9.60;80.40;;;;;;4955437;29;20027;-66
2022/01/28 07:16:30;;;;;;;28.65;21.65;;;9.70;80.60;;;;;;4955372;29;20158;-65
2022/01/28 07:18:56;;;;;;;29.42;20.70;;;9.80;80.80;;;;;;4955095;29;20031;-66
2022/01/28 07:21:21;;;;;;;29.55;19.90;;;9.80;80.90;;;;;;4955417;28;20039;-70
2022/01/28 07:23:47;;;;;;;24.65;18.48;;;9.90;81.00;;;;;;4955193;29;20082;-67
2022/01/28 07:26:13;;;;;;;26.08;17.83;;;9.90;80.50;;;;;;4955015;29;20499;-67
2022/01/28 07:28:41;;;;;;;27.35;18.80;;;10.00;78.80;;;;;;4954056;28;20082;-65
2022/01/28 07:31:14;;;;;;;24.02;18.58;;;10.00;78.70;;;;;;4954122;29;20397;-66
2022/01/28 07:33:40;;;;;;;30.33;18.77;;;10.00;78.00;;;;;;4954962;29;20151;-68
2022/01/28 07:36:07;;;;;;;31.63;18.75;;;10.10;78.30;;;;;;4954455;28;20070;-67
2022/01/28 07:38:33;;;;;;;27.92;18.60;;;10.10;78.10;;;;;;4955047;29;20111;-66
2022/01/28 07:41:01;;;;;;;27.20;18.58;;;10.20;78.10;;;;;;4954983;28;20028;-66
2022/01/28 07:43:28;;;;;;;31.05;19.58;;;10.30;78.10;;;;;;4954634;28;20046;-65
2022/01/28 07:45:54;;;;;;;31.50;20.88;;;10.40;77.70;;;;;;4954852;29;20038;-66
2022/01/28 07:48:20;;;;;;;35.55;21.00;;;10.40;77.30;;;;;;4954888;28;20035;-67
2022/01/28 07:50:46;;;;;;;37.33;20.55;;;10.40;77.10;;;;;;4953587;29;20042;-66
2022/01/28 07:53:16;;;;;;;28.35;19.40;;;10.50;77.00;;;;;;4954597;28;20020;-66
2022/01/28 07:55:43;;;;;;;39.25;21.38;;;10.50;76.40;;;;;;4954539;28;20365;-67
2022/01/28 07:58:08;;;;;;;33.55;20.83;;;10.50;76.30;;;;;;4954519;29;20047;-67
2022/01/28 08:00:34;;;;;;;31.17;20.27;;;10.60;75.80;;;;;;4954613;29;20086;-66
2022/01/28 08:03:00;;;;;;;43.97;21.30;;;10.60;75.60;;;;;;4954330;28;20032;-66
2022/01/28 08:05:26;;;;;;;48.22;22.40;;;10.60;75.30;;;;;;4952813;29;20035;-67
2022/01/28 08:07:52;;;;;;;49.25;23.40;;;10.60;75.00;;;;;;4954185;29;20019;-66
2022/01/28 08:10:19;;;;;;;35.75;20.45;;;10.60;75.00;;;;;;4954172;28;20058;-67
2022/01/28 08:12:51;;;;;;;34.70;20.58;;;10.70;75.20;;;;;;4954353;29;20074;-67
2022/01/28 08:15:18;;;;;;;33.95;22.73;;;10.60;74.70;;;;;;4952972;28;20027;-66
2022/01/28 08:17:44;;;;;;;36.20;21.77;;;10.70;74.70;;;;;;4954431;29;20540;-67
2022/01/28 08:20:11;;;;;;;34.65;22.27;;;10.70;74.70;;;;;;4954195;28;20099;-66
2022/01/28 08:22:51;;;;;;;31.75;21.65;;;10.70;74.50;;;;;;4954337;28;20078;-66
2022/01/28 08:25:19;;;;;;;31.63;20.90;;;10.80;75.20;;;;;;4954363;29;20504;-67
2022/01/28 08:27:45;;;;;;;30.50;22.35;;;10.80;74.30;;;;;;4954387;29;20491;-66
2022/01/28 08:30:13;;;;;;;34.78;23.17;;;10.90;74.30;;;;;;4953986;29;20110;-67
2022/01/28 08:32:39;;;;;;;32.83;21.67;;;10.90;74.30;;;;;;4953963;28;20481;-70
2022/01/28 08:35:06;;;;;;;36.35;23.48;;;10.90;74.30;;;;;;4954586;29;20053;-66
2022/01/28 08:37:32;;;;;;;37.55;22.35;;;10.80;74.30;;;;;;4954820;28;20469;-66
2022/01/28 08:39:57;;;;;;;31.10;21.10;;;10.90;74.50;;;;;;4955229;28;20101;-68
2022/01/28 08:42:23;;;;;;;35.88;21.83;;;10.80;74.10;;;;;;4941072;28;20027;-69
2022/01/28 08:44:49;;;;;;;31.38;22.20;;;10.80;74.30;;;;;;4958381;28;20090;-67
2022/01/28 08:47:15;;;;;;;36.55;21.65;;;10.80;74.40;;;;;;4958905;28;20445;-69
2022/01/28 08:49:40;;;;;;;30.50;20.42;;;10.90;74.30;;;;;;4959263;28;20035;-67
2022/01/28 08:52:08;;;;;;;35.30;21.80;;;10.90;74.20;;;;;;4941941;29;20050;-71
2022/01/28 08:54:33;;;;;;;35.08;21.55;;;10.80;74.50;;;;;;4958600;28;20129;-70
2022/01/28 08:56:59;;;;;;;28.63;19.67;;;10.90;74.20;;;;;;4958927;29;20051;-68
2022/01/28 08:59:25;;;;;;;42.00;20.38;;;10.90;74.20;;;;;;4960199;29;20109;-68
2022/01/28 09:01:50;;;;;;;32.13;20.30;;;10.90;74.10;;;;;;4961681;28;20035;-67
2022/01/28 09:04:16;;;;;;;29.10;20.45;;;11.00;74.20;;;;;;4960762;28;20114;-66
2022/01/28 09:06:42;;;;;;;28.45;20.60;;;11.00;74.30;;;;;;4959567;28;20470;-71
2022/01/28 09:09:07;;;;;;;31.52;20.85;;;11.00;74.00;;;;;;4959965;29;20031;-69
2022/01/28 09:14:15;;;;;;;33.20;21.00;;;11.20;74.30;;;;;;4959967;28;20030;-68
2022/01/28 09:16:42;;;;;;;31.27;21.10;;;11.30;73.90;;;;;;4941842;29;20094;-67
2022/01/28 09:19:08;;;;;;;29.80;22.20;;;11.30;73.90;;;;;;4957948;28;20026;-73
2022/01/28 09:21:34;;;;;;;30.73;23.48;;;11.40;73.80;;;;;;4957247;29;20102;-74
2022/01/28 09:24:00;;;;;;;36.88;23.65;;;11.40;73.50;;;;;;4957491;28;20035;-73
2022/01/28 09:26:25;;;;;;;42.50;24.15;;;11.50;73.50;;;;;;4957520;29;20058;-72
2022/01/28 09:28:51;;;;;;;43.47;25.15;;;11.60;72.90;;;;;;4940185;29;20023;-68
2022/01/28 09:31:17;;;;;;;32.80;23.15;;;11.70;72.50;;;;;;4957246;28;20099;-67
2022/01/28 09:33:43;;;;;;;33.35;23.13;;;11.70;72.50;;;;;;4957317;28;20035;-68
2022/01/28 09:36:11;;;;;;;39.72;25.60;;;11.80;72.60;;;;;;4957514;29;20058;-72
2022/01/28 09:38:37;;;;;;;54.55;27.63;;;11.90;72.40;;;;;;4957338;28;20098;-75
2022/01/28 09:41:05;;;;;;;51.38;34.78;;;11.90;71.90;;;;;;4957273;29;20059;-71
2022/01/28 09:43:32;;;;;;;52.00;31.23;;;12.00;71.70;;;;;;4957255;28;20077;-70
2022/01/28 09:45:58;;;;;;;59.28;41.40;;;12.10;71.60;;;;;;4940154;28;20481;-74
2022/01/28 09:48:24;;;;;;;62.25;40.83;;;12.20;71.00;;;;;;4957590;28;20400;-74
2022/01/28 09:50:50;;;;;;;65.40;45.13;;;12.20;70.90;;;;;;4957009;29;20034;-75
2022/01/28 09:53:20;;;;;;;67.30;42.75;;;12.40;70.70;;;;;;4956134;28;20047;-69
2022/01/28 09:55:47;;;;;;;72.00;47.38;;;12.40;70.20;;;;;;4940272;29;20333;-69
2022/01/28 09:58:13;;;;;;;67.93;44.10;;;12.50;70.20;;;;;;4956875;28;20101;-70
2022/01/28 10:00:43;;;;;;;62.30;40.20;;;12.50;69.80;;;;;;4957225;28;20071;-74
2022/01/28 10:03:11;;;;;;;55.95;38.45;;;12.50;69.20;;;;;;4958376;28;20031;-72
2022/01/28 10:05:43;;;;;;;58.35;37.60;;;12.40;69.70;;;;;;4957889;28;20035;-73
2022/01/28 10:08:19;;;;;;;52.42;35.00;;;12.30;69.30;;;;;;4958952;28;20030;-76
2022/01/28 10:10:49;;;;;;;57.45;36.00;;;12.40;69.70;;;;;;4957430;28;20027;-69
2022/01/28 10:13:24;;;;;;;53.28;35.80;;;12.40;69.70;;;;;;4940376;29;20567;-68
2022/01/28 10:16:23;;;;;;;60.05;37.35;;;12.40;69.50;;;;;;4956837;29;20299;-70
2022/01/28 10:18:54;;;;;;;60.35;38.22;;;12.40;69.10;;;;;;4953876;29;20055;-67
2022/01/28 10:21:25;;;;;;;71.15;48.05;;;12.40;69.80;;;;;;4956163;28;20067;-67
2022/01/28 10:24:16;;;;;;;67.40;43.30;;;12.50;70.10;;;;;;4955898;28;20042;-68
2022/01/28 10:26:50;;;;;;;68.18;40.30;;;12.60;68.90;;;;;;4956102;29;20474;-68
2022/01/28 10:29:27;;;;;;;59.55;38.95;;;12.60;69.00;;;;;;4955867;29;20035;-68
2022/01/28 10:31:59;;;;;;;57.97;36.97;;;12.70;68.80;;;;;;4955771;28;20035;-67
2022/01/28 10:34:32;;;;;;;59.95;38.78;;;12.80;68.20;;;;;;4955771;28;20027;-66
2022/01/28 10:37:20;;;;;;;56.03;37.63;;;12.90;67.90;;;;;;4956073;28;20470;-72
2022/01/28 10:39:50;;;;;;;59.38;37.58;;;13.00;67.50;;;;;;4955848;28;20046;-66
2022/01/28 10:42:40;;;;;;;56.05;36.20;;;13.10;67.20;;;;;;4938339;28;20655;-67
2022/01/28 10:45:12;;;;;;;53.88;35.70;;;13.20;66.90;;;;;;4955290;28;20047;-69
2022/01/28 10:47:42;;;;;;;51.55;34.80;;;13.30;66.30;;;;;;4955517;29;20036;-68
2022/01/28 10:50:36;;;;;;;55.83;35.70;;;13.50;66.00;;;;;;4955554;29;20488;-68
2022/01/28 10:53:15;;;;;;;;;;;13.70;65.30;;;;;;4955695;28;20162;-70
2022/01/28 10:55:45;;;;;;;58.08;37.95;;;13.70;63.70;;;;;;4955438;28;20338;-69
2022/01/28 10:58:16;;;;;;;60.83;37.25;;;13.80;64.10;;;;;;4955298;29;20036;-72
2022/01/28 11:00:49;;;;;;;55.38;38.28;;;13.80;64.10;;;;;;4938540;29;20151;-75
2022/01/28 11:03:17;;;;;;;64.28;42.00;;;13.80;65.20;;;;;;4955261;28;20043;-71
2022/01/28 11:05:44;;;;;;;58.65;40.28;;;13.80;64.50;;;;;;4955408;29;20110;-68
2022/01/28 11:08:12;;;;;;;65.60;45.00;;;13.80;64.50;;;;;;4955506;29;20031;-76
2022/01/28 11:10:40;;;;;;;67.45;43.58;;;13.80;64.30;;;;;;4955511;28;20118;-75
2022/01/28 11:13:07;;;;;;;62.08;41.20;;;13.80;65.00;;;;;;4955326;28;20065;-67
2022/01/28 11:15:33;;;;;;;64.80;42.17;;;13.90;64.10;;;;;;4938200;29;20408;-67
2022/01/28 11:18:01;;;;;;;60.83;39.92;;;14.00;64.70;;;;;;4955063;29;20035;-73
2022/01/28 11:21:04;;;;;;;57.53;38.80;;;14.10;63.80;;;;;;4955925;29;20027;-71
2022/01/28 11:23:59;;;;;;;48.10;32.03;;;14.30;63.50;;;;;;4952993;28;20500;-70
2022/01/28 11:26:28;;;;;;;26.40;15.40;;;14.50;62.60;;;;;;4955256;29;20031;-69
2022/01/28 11:28:57;;;;;;;21.33;14.90;;;14.50;61.50;;;;;;4954942;29;20027;-68
2022/01/28 11:31:51;;;;;;;22.75;14.00;;;14.50;61.30;;;;;;4954892;29;20080;-68
2022/01/28 11:34:23;;;;;;;25.08;14.98;;;14.50;61.70;;;;;;4954933;28;20027;-67
2022/01/28 11:36:50;;;;;;;22.45;15.32;;;14.60;60.70;;;;;;4954960;29;20027;-68
2022/01/28 11:39:29;;;;;;;25.02;16.02;;;14.60;60.60;;;;;;4954777;28;20460;-70
2022/01/28 11:42:10;;;;;;;24.73;14.90;;;14.70;61.10;;;;;;4954550;29;20031;-70
2022/01/28 11:44:55;;;;;;;20.70;12.82;;;14.80;61.00;;;;;;4954331;28;20440;-67
2022/01/28 11:47:39;;;;;;;16.17;12.10;;;14.80;60.80;;;;;;4954262;28;20027;-69
2022/01/28 11:50:24;;;;;;;17.38;12.27;;;14.90;60.80;;;;;;4954338;28;20131;-70
2022/01/28 11:52:53;;;;;;;20.50;11.95;;;14.90;60.20;;;;;;4954387;28;20035;-67
2022/01/28 11:55:21;;;;;;;17.40;10.63;;;15.10;60.20;;;;;;4954214;29;20086;-67
2022/01/28 11:58:07;;;;;;;18.42;8.85;;;15.10;60.00;;;;;;4953890;28;20055;-74
2022/01/28 12:00:47;;;;;;;17.52;9.00;;;15.20;59.70;;;;;;4954066;29;20039;-69
2022/01/28 12:03:26;;;;;;;15.57;9.93;;;15.40;59.40;;;;;;4937045;29;20031;-69
2022/01/28 12:05:56;;;;;;;12.90;9.50;;;15.50;58.90;;;;;;4954214;29;20046;-69
2022/01/28 12:08:27;;;;;;;15.45;10.57;;;15.50;59.10;;;;;;4953285;28;20042;-70
2022/01/28 12:10:54;;;;;;;15.13;9.70;;;15.30;59.20;;;;;;4954679;28;20034;-78
2022/01/28 12:13:31;;;;;;;15.63;9.98;;;15.20;59.50;;;;;;4954388;28;20038;-70
2022/01/28 12:16:00;;;;;;;12.80;8.90;;;15.00;59.90;;;;;;4953801;28;20090;-67
2022/01/28 12:18:43;;;;;;;13.30;8.43;;;15.00;60.20;;;;;;4937160;29;20027;-67
2022/01/28 12:21:17;;;;;;;12.43;9.07;;;15.00;59.90;;;;;;4954446;28;20027;-67
2022/01/28 12:23:44;;;;;;;14.27;7.97;;;15.10;60.00;;;;;;4954584;28;20039;-74
2022/01/28 12:26:13;;;;;;;11.40;7.47;;;15.10;59.90;;;;;;4954561;28;20045;-72
2022/01/28 12:28:47;;;;;;;10.20;6.75;;;15.00;59.60;;;;;;4954268;29;20038;-76
2022/01/28 12:31:33;;;;;;;10.25;6.20;;;15.00;59.30;;;;;;4954311;29;20134;-78
2022/01/28 12:34:03;;;;;;;9.05;6.57;;;15.00;59.20;;;;;;4954238;28;20027;-74
2022/01/28 12:36:37;;;;;;;10.23;6.57;;;15.10;59.10;;;;;;4954313;28;20042;-74
2022/01/28 12:41:42;;;;;;;9.70;6.38;;;15.30;58.90;;;;;;4954430;29;20035;-67
2022/01/28 12:44:09;;;;;;;11.32;7.30;;;15.40;58.60;;;;;;4954142;28;20412;-67
2022/01/28 12:46:38;;;;;;;47.20;32.08;;;15.50;58.20;;;;;;4954383;29;20031;-66
2022/01/28 12:49:07;;;;;;;13.48;7.68;;;15.60;58.20;;;;;;4954063;29;20030;-68
2022/01/28 12:51:37;;;;;;;16.20;9.18;;;15.70;57.90;;;;;;4954085;28;20028;-69
2022/01/28 12:54:03;;;;;;;12.80;7.75;;;15.90;57.60;;;;;;4954024;28;20032;-66
2022/01/28 12:56:40;;;;;;;10.70;7.47;;;15.90;57.30;;;;;;4936395;29;20027;-67
2022/01/28 12:59:07;;;;;;;11.00;6.50;;;16.00;56.90;;;;;;4954158;28;20133;-66
2022/01/28 13:01:34;;;;;;;18.48;8.45;;;15.90;56.80;;;;;;4954928;29;20086;-68
2022/01/28 13:04:11;;;;;;;14.25;7.60;;;15.80;57.00;;;;;;4936592;29;20042;-68
2022/01/28 13:06:43;;;;;;;12.73;7.88;;;15.80;57.40;;;;;;4953669;29;20027;-70
2022/01/28 13:09:19;;;;;;;10.50;5.63;;;15.80;56.90;;;;;;4953496;29;20027;-72
2022/01/28 13:11:50;;;;;;;8.93;5.82;;;15.80;56.70;;;;;;4936364;29;20031;-68
2022/01/28 13:14:34;;;;;;;10.30;5.88;;;15.80;56.70;;;;;;4936099;29;20469;-76
2022/01/28 13:17:04;;;;;;;14.13;6.38;;;15.70;56.70;;;;;;4953719;29;20030;-67
2022/01/28 13:19:29;;;;;;;16.05;6.20;;;15.80;56.90;;;;;;4953817;29;20106;-76
2022/01/28 13:21:55;;;;;;;13.45;6.47;;;15.70;56.60;;;;;;4953649;29;20414;-68
2022/01/28 13:24:24;;;;;;;10.73;5.97;;;15.70;56.80;;;;;;4953445;28;20044;-67
2022/01/28 13:27:08;;;;;;;10.60;5.38;;;15.80;56.70;;;;;;4953477;28;20019;-69
2022/01/28 13:29:38;;;;;;;8.77;5.40;;;15.70;56.10;;;;;;4957251;29;20035;-78
2022/01/28 13:32:09;;;;;;;10.05;5.88;;;15.60;56.60;;;;;;4957257;28;20023;-72
2022/01/28 13:34:55;;;;;;;11.55;5.38;;;15.40;56.90;;;;;;4939689;29;20032;-69
2022/01/28 13:37:39;;;;;;;10.98;6.45;;;15.30;57.30;;;;;;4957080;28;20511;-80
2022/01/28 13:40:21;;;;;;;10.85;5.55;;;15.20;57.20;;;;;;4956971;29;20139;-74
2022/01/28 13:42:57;;;;;;;9.85;5.90;;;15.00;57.30;;;;;;4956931;28;20440;-69
2022/01/28 13:45:41;;;;;;;9.52;5.53;;;14.90;58.30;;;;;;4956831;28;20097;-72
2022/01/28 13:48:18;;;;;;;14.05;5.47;;;14.90;58.20;;;;;;4956860;29;20169;-66
2022/01/28 13:50:46;;;;;;;10.63;5.90;;;14.90;58.70;;;;;;4956781;29;20028;-68
2022/01/28 13:55:50;;;;;;;8.25;5.45;;;15.10;58.50;;;;;;4956600;28;20464;-67
2022/01/28 13:58:16;;;;;;;12.85;5.50;;;15.20;58.50;;;;;;4939056;29;20058;-66
2022/01/28 14:00:53;;;;;;;8.82;5.88;;;15.20;58.30;;;;;;4956600;29;20035;-69
2022/01/28 14:03:20;;;;;;;13.30;5.82;;;15.30;58.50;;;;;;4939183;29;20400;-66
2022/01/28 14:05:51;;;;;;;10.60;6.00;;;15.30;58.20;;;;;;4956374;29;20133;-70
2022/01/28 14:08:40;;;;;;;9.82;6.68;;;15.30;58.20;;;;;;4956148;28;20027;-67
2022/01/28 14:11:20;;;;;;;12.30;6.70;;;15.30;57.70;;;;;;4956250;29;20050;-67
2022/01/28 14:14:08;;;;;;;9.25;5.35;;;15.30;58.10;;;;;;4956244;28;20516;-67
2022/01/28 14:16:35;;;;;;;13.20;7.05;;;15.30;57.90;;;;;;4938795;29;20028;-73
2022/01/28 14:19:02;;;;;;;11.07;6.10;;;15.30;58.50;;;;;;4956188;28;20038;-68
2022/01/28 14:21:29;;;;;;;12.68;5.72;;;15.20;58.50;;;;;;4956435;28;20223;-74
2022/01/28 14:23:56;;;;;;;11.63;6.30;;;15.10;58.60;;;;;;4955798;28;20035;-71